sensor_id;sensor_type;location;lat;lon;timestamp;pressure;altitude;pressure_sealevel;temperature;humidity
3697;BME280;60662;48.810;8.872;2023-05-07T04:55:04;96467.19;;;10.06;100.00
3697;BME280;60662;48.810;8.872;2023-05-07T06:43:09;96524.88;;;15.58;76.07
3697;BME280;60662;48.810;8.872;2023-05-07T06:45:14;96513.94;;;15.64;74.10
3697;BME280;60662;48.810;8.872;2023-05-07T06:46:16;96510.09;;;15.95;74.23
3697;BME280;60662;48.810;8.872;2023-05-07T06:48:34;96521.69;;;16.44;72.47
3697;BME280;60662;48.810;8.872;2023-05-07T06:49:35;96526.69;;;16.60;70.58
3697;BME280;60662;48.810;8.872;2023-05-07T06:50:37;96515.63;;;16.55;70.22
3697;BME280;60662;48.810;8.872;2023-05-07T06:51:38;96513.44;;;16.49;71.00
3697;BME280;60662;48.810;8.872;2023-05-07T06:52:40;96524.00;;;16.73;69.91
3697;BME280;60662;48.810;8.872;2023-05-07T06:53:41;96514.09;;;16.77;70.16
3697;BME280;60662;48.810;8.872;2023-05-07T06:54:43;96517.16;;;16.84;69.67
3697;BME280;60662;48.810;8.872;2023-05-07T06:55:44;96515.03;;;16.76;69.55
3697;BME280;60662;48.810;8.872;2023-05-07T06:56:45;96509.22;;;16.96;68.94
3697;BME280;60662;48.810;8.872;2023-05-07T06:57:47;96510.50;;;17.15;68.67
3697;BME280;60662;48.810;8.872;2023-05-07T06:58:48;96514.72;;;17.18;68.55
3697;BME280;60662;48.810;8.872;2023-05-07T06:59:50;96514.31;;;17.11;68.86
3697;BME280;60662;48.810;8.872;2023-05-07T07:00:51;96518.34;;;17.17;68.47
3697;BME280;60662;48.810;8.872;2023-05-07T07:01:53;96520.09;;;17.16;68.12
3697;BME280;60662;48.810;8.872;2023-05-07T07:02:55;96520.28;;;17.26;68.12
3697;BME280;60662;48.810;8.872;2023-05-07T07:03:56;96517.50;;;17.52;67.33
3697;BME280;60662;48.810;8.872;2023-05-07T07:04:58;96517.84;;;17.83;66.57
3697;BME280;60662;48.810;8.872;2023-05-07T07:05:59;96501.09;;;17.71;66.28
3697;BME280;60662;48.810;8.872;2023-05-07T07:07:03;96514.16;;;17.97;66.47
3697;BME280;60662;48.810;8.872;2023-05-07T07:08:04;96511.53;;;18.19;64.89
3697;BME280;60662;48.810;8.872;2023-05-07T07:09:06;96510.84;;;18.17;64.95
3697;BME280;60662;48.810;8.872;2023-05-07T07:10:08;96510.84;;;18.40;64.38
3697;BME280;60662;48.810;8.872;2023-05-07T07:11:10;96513.09;;;18.44;65.48
3697;BME280;60662;48.810;8.872;2023-05-07T07:12:11;96510.31;;;18.57;64.93
3697;BME280;60662;48.810;8.872;2023-05-07T07:13:13;96505.78;;;18.48;64.27
3697;BME280;60662;48.810;8.872;2023-05-07T07:14:15;96509.00;;;18.63;63.84
3697;BME280;60662;48.810;8.872;2023-05-07T07:15:16;96512.50;;;18.64;64.39
3697;BME280;60662;48.810;8.872;2023-05-07T07:16:18;96506.88;;;18.34;64.82
3697;BME280;60662;48.810;8.872;2023-05-07T07:17:19;96511.66;;;18.63;64.78
3697;BME280;60662;48.810;8.872;2023-05-07T07:18:21;96514.44;;;18.27;65.35
3697;BME280;60662;48.810;8.872;2023-05-07T07:19:22;96504.47;;;18.31;65.94
3697;BME280;60662;48.810;8.872;2023-05-07T07:20:23;96518.78;;;18.51;65.74
3697;BME280;60662;48.810;8.872;2023-05-07T07:21:25;96510.25;;;18.48;67.07
3697;BME280;60662;48.810;8.872;2023-05-07T07:22:27;96512.00;;;18.24;66.78
3697;BME280;60662;48.810;8.872;2023-05-07T07:23:28;96502.44;;;18.12;66.60
3697;BME280;60662;48.810;8.872;2023-05-07T07:24:29;96523.16;;;17.94;66.63
3697;BME280;60662;48.810;8.872;2023-05-07T07:25:31;96516.09;;;18.06;66.13
3697;BME280;60662;48.810;8.872;2023-05-07T07:26:33;96520.22;;;17.86;66.19
3697;BME280;60662;48.810;8.872;2023-05-07T07:27:34;96511.09;;;17.78;67.15
3697;BME280;60662;48.810;8.872;2023-05-07T07:28:42;96519.00;;;17.78;66.57
3697;BME280;60662;48.810;8.872;2023-05-07T07:29:45;96522.81;;;17.27;67.56
3697;BME280;60662;48.810;8.872;2023-05-07T07:30:47;96512.56;;;16.98;68.65
3697;BME280;60662;48.810;8.872;2023-05-07T07:33:00;96502.91;;;16.36;70.24
3697;BME280;60662;48.810;8.872;2023-05-07T07:41:05;96522.28;;;16.98;70.24
3697;BME280;60662;48.810;8.872;2023-05-07T07:43:08;96500.38;;;17.22;69.54
3697;BME280;60662;48.810;8.872;2023-05-07T07:44:10;96530.38;;;17.32;68.99
3697;BME280;60662;48.810;8.872;2023-05-07T07:46:23;96522.56;;;17.06;70.69
3697;BME280;60662;48.810;8.872;2023-05-07T07:47:25;96529.91;;;17.14;70.15
3697;BME280;60662;48.810;8.872;2023-05-07T07:48:26;96522.25;;;17.11;70.15
3697;BME280;60662;48.810;8.872;2023-05-07T07:49:28;96525.38;;;17.16;70.25
3697;BME280;60662;48.810;8.872;2023-05-07T07:50:29;96534.09;;;17.29;70.00
3697;BME280;60662;48.810;8.872;2023-05-07T07:51:45;96527.84;;;17.30;70.45
3697;BME280;60662;48.810;8.872;2023-05-07T07:52:48;96532.09;;;17.44;69.87
3697;BME280;60662;48.810;8.872;2023-05-07T07:53:49;96534.00;;;17.67;69.70
3697;BME280;60662;48.810;8.872;2023-05-07T07:54:50;96537.31;;;17.93;69.17
3697;BME280;60662;48.810;8.872;2023-05-07T07:55:52;96526.59;;;17.83;68.61
3697;BME280;60662;48.810;8.872;2023-05-07T07:56:59;96529.03;;;17.98;68.86
3697;BME280;60662;48.810;8.872;2023-05-07T07:58:00;96526.91;;;18.25;68.50
3697;BME280;60662;48.810;8.872;2023-05-07T07:59:02;96525.97;;;18.60;67.86
3697;BME280;60662;48.810;8.872;2023-05-07T08:00:04;96525.72;;;18.52;67.55
3697;BME280;60662;48.810;8.872;2023-05-07T08:01:07;96529.81;;;18.68;67.02
3697;BME280;60662;48.810;8.872;2023-05-07T08:02:08;96526.91;;;18.71;67.09
3697;BME280;60662;48.810;8.872;2023-05-07T08:03:10;96524.38;;;18.81;66.84
3697;BME280;60662;48.810;8.872;2023-05-07T08:04:12;96527.03;;;18.81;67.11
3697;BME280;60662;48.810;8.872;2023-05-07T08:05:14;96522.94;;;18.76;66.50
3697;BME280;60662;48.810;8.872;2023-05-07T08:07:14;96528.47;;;18.73;67.54
3697;BME280;60662;48.810;8.872;2023-05-07T08:08:16;96531.47;;;18.80;67.46
3697;BME280;60662;48.810;8.872;2023-05-07T08:09:17;96532.06;;;18.84;67.32
3697;BME280;60662;48.810;8.872;2023-05-07T08:11:21;96511.66;;;18.29;67.28
3697;BME280;60662;48.810;8.872;2023-05-07T08:12:23;96522.13;;;18.65;67.12
3697;BME280;60662;48.810;8.872;2023-05-07T08:13:24;96529.69;;;18.92;67.18
3697;BME280;60662;48.810;8.872;2023-05-07T08:14:26;96529.06;;;18.88;66.20
3697;BME280;60662;48.810;8.872;2023-05-07T08:15:29;96530.78;;;18.67;66.61
3697;BME280;60662;48.810;8.872;2023-05-07T08:16:31;96528.47;;;18.73;65.67
3697;BME280;60662;48.810;8.872;2023-05-07T08:17:33;96518.75;;;18.17;65.61
3697;BME280;60662;48.810;8.872;2023-05-07T08:18:34;96530.84;;;18.76;65.22
3697;BME280;60662;48.810;8.872;2023-05-07T08:19:36;96525.19;;;19.15;63.97
3697;BME280;60662;48.810;8.872;2023-05-07T08:20:37;96532.72;;;19.31;63.93
3697;BME280;60662;48.810;8.872;2023-05-07T08:21:40;96527.38;;;18.99;64.50
3697;BME280;60662;48.810;8.872;2023-05-07T08:22:42;96533.50;;;18.88;64.35
3697;BME280;60662;48.810;8.872;2023-05-07T08:23:43;96530.38;;;18.94;63.63
3697;BME280;60662;48.810;8.872;2023-05-07T08:24:45;96535.16;;;19.12;63.97
3697;BME280;60662;48.810;8.872;2023-05-07T08:25:46;96529.63;;;19.47;63.04
3697;BME280;60662;48.810;8.872;2023-05-07T08:26:48;96526.28;;;19.66;63.15
3697;BME280;60662;48.810;8.872;2023-05-07T08:27:49;96539.63;;;19.76;61.96
3697;BME280;60662;48.810;8.872;2023-05-07T08:28:50;96535.44;;;19.95;62.10
3697;BME280;60662;48.810;8.872;2023-05-07T08:29:53;96529.44;;;19.93;61.53
3697;BME280;60662;48.810;8.872;2023-05-07T08:30:54;96533.22;;;19.79;62.40
3697;BME280;60662;48.810;8.872;2023-05-07T08:31:57;96522.28;;;20.35;61.29
3697;BME280;60662;48.810;8.872;2023-05-07T08:33:00;96534.44;;;20.38;60.84
3697;BME280;60662;48.810;8.872;2023-05-07T08:34:03;96523.78;;;20.28;60.52
3697;BME280;60662;48.810;8.872;2023-05-07T08:35:05;96526.75;;;20.35;60.22
3697;BME280;60662;48.810;8.872;2023-05-07T08:36:06;96534.34;;;20.49;59.49
3697;BME280;60662;48.810;8.872;2023-05-07T08:37:08;96533.41;;;20.60;59.95
3697;BME280;60662;48.810;8.872;2023-05-07T08:38:09;96530.47;;;20.53;60.18
3697;BME280;60662;48.810;8.872;2023-05-07T08:39:11;96528.06;;;20.81;60.32
3697;BME280;60662;48.810;8.872;2023-05-07T08:40:12;96518.88;;;21.05;59.74
3697;BME280;60662;48.810;8.872;2023-05-07T08:41:15;96536.41;;;21.27;59.13
3697;BME280;60662;48.810;8.872;2023-05-07T08:42:17;96531.50;;;21.23;58.13
3697;BME280;60662;48.810;8.872;2023-05-07T08:43:19;96526.97;;;20.94;59.59
3697;BME280;60662;48.810;8.872;2023-05-07T08:44:22;96531.41;;;20.74;59.40
3697;BME280;60662;48.810;8.872;2023-05-07T08:45:24;96526.56;;;20.58;59.75
3697;BME280;60662;48.810;8.872;2023-05-07T08:46:31;96535.19;;;20.50;59.22
3697;BME280;60662;48.810;8.872;2023-05-07T08:47:41;96528.47;;;20.77;59.15
3697;BME280;60662;48.810;8.872;2023-05-07T08:48:44;96530.56;;;20.73;59.91
3697;BME280;60662;48.810;8.872;2023-05-07T08:49:46;96530.34;;;20.24;59.31
3697;BME280;60662;48.810;8.872;2023-05-07T08:50:47;96532.06;;;20.66;59.58
3697;BME280;60662;48.810;8.872;2023-05-07T08:51:49;96531.34;;;21.04;58.11
3697;BME280;60662;48.810;8.872;2023-05-07T08:52:50;96532.19;;;21.15;58.51
3697;BME280;60662;48.810;8.872;2023-05-07T08:53:52;96532.97;;;21.56;57.79
3697;BME280;60662;48.810;8.872;2023-05-07T08:54:53;96526.66;;;21.67;57.54
3697;BME280;60662;48.810;8.872;2023-05-07T08:55:55;96534.78;;;21.56;58.13
3697;BME280;60662;48.810;8.872;2023-05-07T08:56:57;96531.38;;;21.44;58.27
3697;BME280;60662;48.810;8.872;2023-05-07T08:58:00;96537.59;;;21.64;56.33
3697;BME280;60662;48.810;8.872;2023-05-07T08:59:01;96524.66;;;21.49;56.55
3697;BME280;60662;48.810;8.872;2023-05-07T09:00:05;96519.22;;;21.41;57.31
3697;BME280;60662;48.810;8.872;2023-05-07T09:01:15;96531.97;;;21.87;56.79
3697;BME280;60662;48.810;8.872;2023-05-07T09:02:17;96538.34;;;21.25;57.46
3697;BME280;60662;48.810;8.872;2023-05-07T09:03:19;96528.31;;;20.78;56.27
3697;BME280;60662;48.810;8.872;2023-05-07T09:04:21;96533.59;;;21.09;57.11
3697;BME280;60662;48.810;8.872;2023-05-07T09:05:22;96533.19;;;21.43;56.71
3697;BME280;60662;48.810;8.872;2023-05-07T09:06:24;96529.84;;;21.41;57.62
3697;BME280;60662;48.810;8.872;2023-05-07T09:07:26;96539.94;;;21.77;56.82
3697;BME280;60662;48.810;8.872;2023-05-07T09:08:29;96535.72;;;21.54;55.93
3697;BME280;60662;48.810;8.872;2023-05-07T09:09:32;96529.72;;;21.52;56.56
3697;BME280;60662;48.810;8.872;2023-05-07T09:10:34;96521.59;;;21.74;55.96
3697;BME280;60662;48.810;8.872;2023-05-07T09:11:36;96531.81;;;21.68;56.01
3697;BME280;60662;48.810;8.872;2023-05-07T09:12:37;96517.41;;;21.71;55.96
3697;BME280;60662;48.810;8.872;2023-05-07T09:13:40;96521.59;;;21.83;55.89
3697;BME280;60662;48.810;8.872;2023-05-07T09:14:41;96522.31;;;21.85;55.46
3697;BME280;60662;48.810;8.872;2023-05-07T09:15:43;96521.19;;;21.78;55.32
3697;BME280;60662;48.810;8.872;2023-05-07T09:16:46;96505.97;;;21.71;54.67
3697;BME280;60662;48.810;8.872;2023-05-07T09:17:47;96518.63;;;22.06;55.30
3697;BME280;60662;48.810;8.872;2023-05-07T09:18:53;96517.31;;;22.30;53.83
3697;BME280;60662;48.810;8.872;2023-05-07T09:19:54;96516.72;;;22.46;54.08
3697;BME280;60662;48.810;8.872;2023-05-07T09:20:56;96510.22;;;22.58;54.87
3697;BME280;60662;48.810;8.872;2023-05-07T09:22:02;96515.28;;;22.04;56.20
3697;BME280;60662;48.810;8.872;2023-05-07T09:23:05;96521.13;;;22.17;56.38
3697;BME280;60662;48.810;8.872;2023-05-07T09:24:07;96515.50;;;22.30;54.91
3697;BME280;60662;48.810;8.872;2023-05-07T09:25:09;96510.72;;;22.44;54.93
3697;BME280;60662;48.810;8.872;2023-05-07T09:26:11;96507.00;;;22.64;54.02
3697;BME280;60662;48.810;8.872;2023-05-07T09:27:13;96506.09;;;22.74;54.08
3697;BME280;60662;48.810;8.872;2023-05-07T09:28:14;96511.31;;;22.93;53.37
3697;BME280;60662;48.810;8.872;2023-05-07T09:29:16;96496.63;;;22.89;53.64
3697;BME280;60662;48.810;8.872;2023-05-07T09:30:18;96505.47;;;23.18;52.80
3697;BME280;60662;48.810;8.872;2023-05-07T09:31:20;96507.44;;;23.34;52.93
3697;BME280;60662;48.810;8.872;2023-05-07T09:32:22;96508.34;;;22.96;54.09
3697;BME280;60662;48.810;8.872;2023-05-07T09:33:27;96508.59;;;23.03;52.94
3697;BME280;60662;48.810;8.872;2023-05-07T09:34:29;96517.28;;;22.40;54.04
3697;BME280;60662;48.810;8.872;2023-05-07T09:35:31;96514.84;;;22.56;53.22
3697;BME280;60662;48.810;8.872;2023-05-07T09:36:33;96513.88;;;22.57;54.24
3697;BME280;60662;48.810;8.872;2023-05-07T09:37:35;96518.84;;;22.70;53.94
3697;BME280;60662;48.810;8.872;2023-05-07T09:38:37;96515.34;;;22.97;54.32
3697;BME280;60662;48.810;8.872;2023-05-07T09:39:46;96508.13;;;23.08;53.63
3697;BME280;60662;48.810;8.872;2023-05-07T09:41:01;96510.63;;;23.19;52.72
3697;BME280;60662;48.810;8.872;2023-05-07T09:42:04;96511.72;;;22.71;52.48
3697;BME280;60662;48.810;8.872;2023-05-07T09:43:10;96510.78;;;23.54;51.66
3697;BME280;60662;48.810;8.872;2023-05-07T09:44:14;96518.00;;;23.79;51.51
3697;BME280;60662;48.810;8.872;2023-05-07T09:45:26;96507.72;;;23.67;51.18
3697;BME280;60662;48.810;8.872;2023-05-07T09:46:30;96512.38;;;23.64;51.87
3697;BME280;60662;48.810;8.872;2023-05-07T09:47:32;96515.44;;;23.52;51.37
3697;BME280;60662;48.810;8.872;2023-05-07T09:48:38;96508.03;;;23.63;51.16
3697;BME280;60662;48.810;8.872;2023-05-07T09:49:41;96514.13;;;23.20;52.21
3697;BME280;60662;48.810;8.872;2023-05-07T09:50:51;96516.81;;;22.64;53.98
3697;BME280;60662;48.810;8.872;2023-05-07T09:51:56;96503.16;;;22.29;53.99
3697;BME280;60662;48.810;8.872;2023-05-07T09:52:59;96513.84;;;22.67;53.80
3697;BME280;60662;48.810;8.872;2023-05-07T09:54:02;96514.38;;;22.43;54.47
3697;BME280;60662;48.810;8.872;2023-05-07T09:55:05;96481.75;;;21.74;55.11
3697;BME280;60662;48.810;8.872;2023-05-07T09:56:07;96505.00;;;22.29;55.03
3697;BME280;60662;48.810;8.872;2023-05-07T09:57:10;96511.56;;;21.67;54.48
3697;BME280;60662;48.810;8.872;2023-05-07T09:58:14;96507.34;;;21.26;55.32
3697;BME280;60662;48.810;8.872;2023-05-07T09:59:18;96510.28;;;21.32;56.13
3697;BME280;60662;48.810;8.872;2023-05-07T10:00:22;96496.44;;;21.39;56.11
3697;BME280;60662;48.810;8.872;2023-05-07T10:01:25;96499.13;;;21.48;56.24
3697;BME280;60662;48.810;8.872;2023-05-07T10:02:29;96503.00;;;21.74;55.13
3697;BME280;60662;48.810;8.872;2023-05-07T10:03:33;96504.28;;;21.60;55.18
3697;BME280;60662;48.810;8.872;2023-05-07T10:04:36;96503.16;;;21.43;56.60
3697;BME280;60662;48.810;8.872;2023-05-07T10:05:38;96496.16;;;21.71;55.41
3697;BME280;60662;48.810;8.872;2023-05-07T10:06:40;96506.22;;;21.48;55.44
3697;BME280;60662;48.810;8.872;2023-05-07T10:07:43;96497.03;;;21.62;55.03
3697;BME280;60662;48.810;8.872;2023-05-07T10:08:45;96502.38;;;22.09;54.23
3697;BME280;60662;48.810;8.872;2023-05-07T10:09:48;96493.09;;;22.33;54.54
3697;BME280;60662;48.810;8.872;2023-05-07T10:10:49;96486.50;;;22.37;53.91
3697;BME280;60662;48.810;8.872;2023-05-07T10:11:51;96492.34;;;22.50;53.79
3697;BME280;60662;48.810;8.872;2023-05-07T10:12:54;96486.97;;;22.23;53.37
3697;BME280;60662;48.810;8.872;2023-05-07T10:13:56;96496.53;;;22.06;53.92
3697;BME280;60662;48.810;8.872;2023-05-07T10:14:58;96498.09;;;21.98;53.29
3697;BME280;60662;48.810;8.872;2023-05-07T10:15:59;96493.91;;;21.76;54.35
3697;BME280;60662;48.810;8.872;2023-05-07T10:17:02;96505.66;;;21.44;55.57
3697;BME280;60662;48.810;8.872;2023-05-07T10:18:06;96495.88;;;21.84;54.26
3697;BME280;60662;48.810;8.872;2023-05-07T10:19:08;96500.44;;;22.01;54.20
3697;BME280;60662;48.810;8.872;2023-05-07T10:20:13;96482.19;;;21.79;54.41
3697;BME280;60662;48.810;8.872;2023-05-07T10:21:19;96493.91;;;21.86;54.04
3697;BME280;60662;48.810;8.872;2023-05-07T10:22:21;96495.75;;;22.23;54.26
3697;BME280;60662;48.810;8.872;2023-05-07T10:23:24;96479.88;;;22.04;53.62
3697;BME280;60662;48.810;8.872;2023-05-07T10:24:31;96482.38;;;22.05;54.13
3697;BME280;60662;48.810;8.872;2023-05-07T10:25:34;96498.09;;;21.98;53.89
3697;BME280;60662;48.810;8.872;2023-05-07T10:26:35;96496.88;;;21.83;53.91
3697;BME280;60662;48.810;8.872;2023-05-07T10:27:38;96469.41;;;21.92;53.93
3697;BME280;60662;48.810;8.872;2023-05-07T10:28:43;96498.72;;;22.20;53.36
3697;BME280;60662;48.810;8.872;2023-05-07T10:31:55;96502.28;;;21.91;52.78
3697;BME280;60662;48.810;8.872;2023-05-07T10:33:03;96500.34;;;21.83;52.38
3697;BME280;60662;48.810;8.872;2023-05-07T10:34:10;96496.53;;;22.06;52.98
3697;BME280;60662;48.810;8.872;2023-05-07T10:35:24;96501.78;;;22.25;52.65
3697;BME280;60662;48.810;8.872;2023-05-07T10:36:27;96495.50;;;22.16;52.77
3697;BME280;60662;48.810;8.872;2023-05-07T10:37:29;96498.00;;;22.38;53.02
3697;BME280;60662;48.810;8.872;2023-05-07T10:38:31;96493.03;;;22.05;53.29
3697;BME280;60662;48.810;8.872;2023-05-07T10:39:32;96491.31;;;22.24;52.93
3697;BME280;60662;48.810;8.872;2023-05-07T10:40:34;96493.78;;;22.45;52.92
3697;BME280;60662;48.810;8.872;2023-05-07T10:41:36;96494.81;;;22.62;52.70
3697;BME280;60662;48.810;8.872;2023-05-07T10:42:38;96496.53;;;22.53;53.59
3697;BME280;60662;48.810;8.872;2023-05-07T10:43:41;96498.47;;;22.61;54.70
3697;BME280;60662;48.810;8.872;2023-05-07T10:44:43;96496.38;;;22.55;56.33
3697;BME280;60662;48.810;8.872;2023-05-07T10:46:17;96498.50;;;22.51;57.82
3697;BME280;60662;48.810;8.872;2023-05-07T10:47:19;96495.44;;;22.46;58.59
3697;BME280;60662;48.810;8.872;2023-05-07T10:48:20;96496.28;;;22.46;59.23
3697;BME280;60662;48.810;8.872;2023-05-07T10:49:31;96503.16;;;22.49;59.36
3697;BME280;60662;48.810;8.872;2023-05-07T10:50:32;96495.72;;;22.53;59.28
3697;BME280;60662;48.810;8.872;2023-05-07T10:51:34;96496.84;;;22.50;59.36
3697;BME280;60662;48.810;8.872;2023-05-07T10:52:36;96497.44;;;22.44;58.87
3697;BME280;60662;48.810;8.872;2023-05-07T10:53:38;96492.78;;;22.46;59.04
3697;BME280;60662;48.810;8.872;2023-05-07T10:54:39;96501.06;;;22.43;59.09
3697;BME280;60662;48.810;8.872;2023-05-07T10:55:41;96492.53;;;22.39;59.28
3697;BME280;60662;48.810;8.872;2023-05-07T10:56:43;96499.53;;;22.30;59.94
3697;BME280;60662;48.810;8.872;2023-05-07T10:57:44;96497.44;;;22.24;60.40
3697;BME280;60662;48.810;8.872;2023-05-07T10:58:46;96492.13;;;22.24;60.47
3697;BME280;60662;48.810;8.872;2023-05-07T10:59:47;96493.66;;;22.27;60.79
3697;BME280;60662;48.810;8.872;2023-05-07T11:00:49;96471.38;;;21.90;61.20
3697;BME280;60662;48.810;8.872;2023-05-07T11:01:52;96504.28;;;21.89;61.34
3697;BME280;60662;48.810;8.872;2023-05-07T12:25:19;96516.63;;;19.55;73.54
3697;BME280;60662;48.810;8.872;2023-05-07T12:27:53;96516.56;;;19.34;73.28
3697;BME280;60662;48.810;8.872;2023-05-07T12:30:37;96517.59;;;19.11;71.12
